createdAt,value
2022-10-13T00:00:14.385Z,9.40
2022-10-13T00:02:41.144Z,9.40
2022-10-13T00:05:08.774Z,9.50
2022-10-13T00:07:35.629Z,9.40
2022-10-13T00:10:02.542Z,9.50
2022-10-13T00:12:29.343Z,9.50
2022-10-13T00:14:56.139Z,9.60
2022-10-13T00:17:22.981Z,9.60
2022-10-13T00:19:49.733Z,9.60
2022-10-13T00:22:16.924Z,9.60
2022-10-13T00:24:43.971Z,9.70
2022-10-13T00:27:10.878Z,9.70
2022-10-13T00:29:37.686Z,9.70
2022-10-13T00:32:04.622Z,9.80
2022-10-13T00:34:31.423Z,9.70
2022-10-13T00:36:58.418Z,9.80
2022-10-13T00:39:25.700Z,9.80
2022-10-13T00:41:54.539Z,9.90
2022-10-13T00:44:58.211Z,9.90
2022-10-13T00:47:26.274Z,9.90
2022-10-13T00:49:54.630Z,9.80
2022-10-13T00:52:23.548Z,9.90
2022-10-13T00:54:51.074Z,9.90
2022-10-13T00:57:20.707Z,9.90
2022-10-13T00:59:48.341Z,9.90
2022-10-13T01:02:16.034Z,9.90
2022-10-13T01:04:46.560Z,9.90
2022-10-13T01:07:16.386Z,9.90
2022-10-13T01:09:43.464Z,9.90
2022-10-13T01:12:32.434Z,9.90
2022-10-13T01:15:37.383Z,9.90
2022-10-13T01:18:26.190Z,10.00
2022-10-13T01:21:39.528Z,10.00
2022-10-13T01:24:18.066Z,10.00
2022-10-13T01:27:06.538Z,10.00
2022-10-13T01:29:52.141Z,9.90
2022-10-13T01:32:19.126Z,10.00
2022-10-13T01:34:55.135Z,9.90
2022-10-13T01:37:47.193Z,9.90
2022-10-13T01:40:47.838Z,9.90
2022-10-13T01:43:21.745Z,10.00
2022-10-13T01:45:55.824Z,10.00
2022-10-13T01:48:24.178Z,10.00
2022-10-13T01:50:52.063Z,10.00
2022-10-13T01:53:20.400Z,10.00
2022-10-13T01:55:56.396Z,10.00
2022-10-13T01:58:25.708Z,9.90
2022-10-13T02:01:05.594Z,9.90
2022-10-13T02:04:06.406Z,9.90
2022-10-13T02:06:42.294Z,10.00
2022-10-13T02:09:54.688Z,9.90
2022-10-13T02:12:30.844Z,10.00
2022-10-13T02:14:59.529Z,10.00
2022-10-13T02:17:27.934Z,10.00
2022-10-13T02:19:55.323Z,10.00
2022-10-13T02:22:26.133Z,10.00
2022-10-13T02:24:53.198Z,9.90
2022-10-13T02:27:20.021Z,10.00
2022-10-13T02:29:56.347Z,9.90
2022-10-13T02:32:23.902Z,9.90
2022-10-13T02:34:51.328Z,9.90
2022-10-13T02:37:18.302Z,9.90
2022-10-13T02:39:45.147Z,9.90
2022-10-13T02:42:11.968Z,9.90
2022-10-13T02:44:40.144Z,10.00
2022-10-13T02:47:06.891Z,9.90
2022-10-13T02:49:33.649Z,10.00
2022-10-13T02:52:00.776Z,9.90
2022-10-13T02:54:27.524Z,9.90
2022-10-13T02:56:54.373Z,9.90
2022-10-13T02:59:21.141Z,10.00
2022-10-13T03:01:47.930Z,10.10
2022-10-13T03:04:14.673Z,10.00
2022-10-13T03:06:41.473Z,10.10
2022-10-13T03:09:08.293Z,10.10
2022-10-13T03:11:35.206Z,10.00
2022-10-13T03:14:02.117Z,10.10
2022-10-13T03:16:28.891Z,9.90
2022-10-13T03:18:55.705Z,10.00
2022-10-13T03:21:22.519Z,9.90
2022-10-13T03:23:49.482Z,9.80
2022-10-13T03:26:16.756Z,9.80
2022-10-13T03:28:43.567Z,9.80
2022-10-13T03:31:11.923Z,9.90
2022-10-13T03:33:40.080Z,9.90
2022-10-13T03:36:07.547Z,9.80
2022-10-13T03:38:35.497Z,9.80
2022-10-13T03:41:10.788Z,9.80
2022-10-13T03:43:38.123Z,9.80
2022-10-13T03:46:06.589Z,9.90
2022-10-13T03:48:35.464Z,9.90
2022-10-13T03:51:11.089Z,9.80
2022-10-13T03:53:38.106Z,9.80
2022-10-13T03:56:05.832Z,9.70
2022-10-13T03:58:32.709Z,9.70
2022-10-13T04:01:04.793Z,9.80
2022-10-13T04:03:32.289Z,9.80
2022-10-13T04:06:04.253Z,9.80
2022-10-13T04:08:31.770Z,9.80
2022-10-13T04:11:04.677Z,9.80
2022-10-13T04:13:31.996Z,9.80
2022-10-13T04:16:07.241Z,9.70
2022-10-13T04:18:34.378Z,9.70
2022-10-13T04:21:01.587Z,9.70
2022-10-13T04:23:28.454Z,9.70
2022-10-13T04:25:56.531Z,9.80
2022-10-13T04:28:23.376Z,9.60
2022-10-13T04:30:50.340Z,9.70
2022-10-13T04:33:17.365Z,9.70
2022-10-13T04:35:44.210Z,9.70
2022-10-13T04:38:11.053Z,9.70
2022-10-13T04:40:37.853Z,9.80
2022-10-13T04:43:04.631Z,9.80
2022-10-13T04:45:31.380Z,9.70
2022-10-13T04:47:58.401Z,9.80
2022-10-13T04:50:25.188Z,9.70
2022-10-13T04:52:52.002Z,9.70
2022-10-13T04:55:18.832Z,9.70
2022-10-13T04:57:45.644Z,9.70
2022-10-13T05:00:12.997Z,9.70
2022-10-13T05:02:39.770Z,9.60
2022-10-13T05:05:07.233Z,9.70
2022-10-13T05:07:34.006Z,9.80
2022-10-13T05:10:00.803Z,9.80
2022-10-13T05:12:27.573Z,9.80
2022-10-13T05:14:54.345Z,9.80
2022-10-13T05:17:21.137Z,9.90
2022-10-13T05:19:49.351Z,10.00
2022-10-13T05:22:16.086Z,10.00
2022-10-13T05:24:42.867Z,10.00
2022-10-13T05:27:12.399Z,10.00
2022-10-13T05:29:40.340Z,9.90
2022-10-13T05:32:08.325Z,9.90
2022-10-13T05:34:35.151Z,9.90
2022-10-13T05:37:02.116Z,9.90
2022-10-13T05:39:28.928Z,9.90
2022-10-13T05:41:55.699Z,10.00
2022-10-13T05:44:22.748Z,10.00
2022-10-13T05:46:49.840Z,10.00
2022-10-13T05:49:17.036Z,10.00
2022-10-13T05:51:50.744Z,10.00
2022-10-13T05:54:39.198Z,10.10
2022-10-13T05:57:22.526Z,10.00
2022-10-13T05:59:57.512Z,10.00
2022-10-13T06:02:34.708Z,10.00
2022-10-13T06:05:04.452Z,10.00
2022-10-13T06:07:31.921Z,10.00
2022-10-13T06:09:59.337Z,10.10
2022-10-13T06:12:26.131Z,10.10
2022-10-13T06:14:52.860Z,10.10
2022-10-13T06:17:19.691Z,10.00
2022-10-13T06:19:46.507Z,10.10
2022-10-13T06:22:13.360Z,10.10
2022-10-13T06:24:40.102Z,10.10
2022-10-13T06:27:06.896Z,10.10
2022-10-13T06:29:33.818Z,10.10
2022-10-13T06:32:00.654Z,10.10
2022-10-13T06:34:27.472Z,10.10
2022-10-13T06:36:54.245Z,10.20
2022-10-13T06:39:21.064Z,10.20
2022-10-13T06:41:48.317Z,10.20
2022-10-13T06:44:15.112Z,10.20
2022-10-13T06:46:42.051Z,10.20
2022-10-13T06:49:10.434Z,10.20
2022-10-13T06:51:37.428Z,10.20
2022-10-13T06:54:04.253Z,10.30
2022-10-13T06:56:31.822Z,10.30
2022-10-13T06:58:58.613Z,10.40
2022-10-13T07:01:25.363Z,10.50
2022-10-13T07:03:52.684Z,10.50
2022-10-13T07:06:19.792Z,10.50
2022-10-13T07:08:46.750Z,10.50
2022-10-13T07:11:16.101Z,10.50
2022-10-13T07:13:46.539Z,10.50
2022-10-13T07:16:15.077Z,10.50
2022-10-13T07:18:42.008Z,10.50
2022-10-13T07:21:09.535Z,10.60
2022-10-13T07:23:36.354Z,10.60
2022-10-13T07:26:07.780Z,10.60
2022-10-13T07:28:34.701Z,10.60
2022-10-13T07:31:07.929Z,10.70
2022-10-13T07:33:34.823Z,10.70
2022-10-13T07:36:01.566Z,10.80
2022-10-13T07:38:28.305Z,10.80
2022-10-13T07:40:55.076Z,10.90
2022-10-13T07:43:21.816Z,10.90
2022-10-13T07:45:48.604Z,10.90
2022-10-13T07:48:15.891Z,11.00
2022-10-13T07:50:42.694Z,11.00
2022-10-13T07:53:09.428Z,11.10
2022-10-13T07:55:37.227Z,11.20
2022-10-13T07:58:04.326Z,11.20
2022-10-13T08:00:31.169Z,11.30
2022-10-13T08:02:57.962Z,11.30
2022-10-13T08:05:24.711Z,11.40
2022-10-13T08:07:54.662Z,11.50
2022-10-13T08:10:24.273Z,11.60
2022-10-13T08:12:51.079Z,11.70
2022-10-13T08:15:17.859Z,11.70
2022-10-13T08:17:44.621Z,11.80
2022-10-13T08:20:11.629Z,11.80
2022-10-13T08:22:38.372Z,11.90
2022-10-13T08:25:07.220Z,11.90
2022-10-13T08:27:50.228Z,12.10
2022-10-13T08:30:17.829Z,12.20
2022-10-13T08:32:44.792Z,12.30
2022-10-13T08:35:11.805Z,12.30
2022-10-13T08:37:38.585Z,12.50
2022-10-13T08:40:05.841Z,12.70
2022-10-13T08:42:32.643Z,12.90
2022-10-13T08:48:00.075Z,13.00
2022-10-13T08:50:35.733Z,13.00
2022-10-13T08:53:10.114Z,13.20
2022-10-13T08:55:50.776Z,13.20
2022-10-13T08:58:35.611Z,13.30
2022-10-13T09:01:02.321Z,13.50
2022-10-13T09:03:30.366Z,13.60
2022-10-13T09:06:14.401Z,13.70
2022-10-13T09:08:46.993Z,13.70
2022-10-13T09:11:13.920Z,13.80
2022-10-13T09:13:41.053Z,14.00
2022-10-13T09:16:08.197Z,14.10
2022-10-13T09:18:35.361Z,14.00
2022-10-13T09:21:18.513Z,14.20
2022-10-13T09:23:45.419Z,14.10
2022-10-13T09:26:22.387Z,14.30
2022-10-13T09:28:50.005Z,14.10
2022-10-13T09:31:27.607Z,14.00
2022-10-13T09:34:00.903Z,14.00
2022-10-13T09:36:28.198Z,14.00
2022-10-13T09:39:27.736Z,14.20
2022-10-13T09:42:18.866Z,14.20
2022-10-13T09:44:46.644Z,14.40
2022-10-13T09:47:25.355Z,14.50
2022-10-13T09:50:14.372Z,14.60
2022-10-13T09:52:42.576Z,14.80
2022-10-13T09:55:35.149Z,14.90
2022-10-13T09:58:27.952Z,15.00
2022-10-13T10:00:55.656Z,15.10
2022-10-13T10:03:27.484Z,15.10
2022-10-13T10:06:03.050Z,15.20
2022-10-13T10:09:03.270Z,15.30
2022-10-13T10:11:42.393Z,15.40
2022-10-13T10:14:28.339Z,15.50
2022-10-13T10:17:13.882Z,15.50
2022-10-13T10:20:01.143Z,15.60
2022-10-13T10:23:01.494Z,15.60
2022-10-13T10:25:46.965Z,15.70
2022-10-13T10:28:32.356Z,15.60
2022-10-13T10:31:04.299Z,15.70
2022-10-13T10:33:59.190Z,15.80
2022-10-13T10:36:38.630Z,15.80
2022-10-13T10:39:18.357Z,16.00
2022-10-13T10:42:19.483Z,16.00
2022-10-13T10:44:49.149Z,15.90
2022-10-13T10:47:36.598Z,15.80
2022-10-13T10:50:06.614Z,15.90
2022-10-13T10:52:42.088Z,16.00
2022-10-13T10:55:23.629Z,16.10
2022-10-13T10:58:02.700Z,16.30
2022-10-13T11:00:29.514Z,16.40
2022-10-13T11:03:16.500Z,16.50
2022-10-13T11:06:04.436Z,16.50
2022-10-13T11:08:41.569Z,16.60
2022-10-13T11:11:24.882Z,16.90
2022-10-13T11:13:56.448Z,16.90
2022-10-13T11:16:35.682Z,16.90
2022-10-13T11:19:08.387Z,16.60
2022-10-13T11:21:59.070Z,16.50
2022-10-13T11:24:36.183Z,16.60
2022-10-13T11:27:09.221Z,16.50
2022-10-13T11:29:56.205Z,16.50
2022-10-13T11:32:25.936Z,16.60
2022-10-13T11:34:59.746Z,16.70
2022-10-13T11:37:33.005Z,16.70
2022-10-13T11:40:34.075Z,16.90
2022-10-13T11:43:10.255Z,17.00
2022-10-13T11:46:07.170Z,17.10
2022-10-13T11:49:22.014Z,17.00
2022-10-13T11:52:13.759Z,16.90
2022-10-13T11:54:50.140Z,16.90
2022-10-13T11:57:19.426Z,16.80
2022-10-13T11:59:55.373Z,17.00
2022-10-13T12:02:24.902Z,16.80
2022-10-13T12:05:24.265Z,16.50
2022-10-13T12:07:53.861Z,16.60
2022-10-13T12:10:38.026Z,16.70
2022-10-13T12:13:05.672Z,16.70
2022-10-13T12:15:39.439Z,16.50
2022-10-13T12:18:33.975Z,16.40
2022-10-13T12:21:13.056Z,16.50
2022-10-13T12:23:42.917Z,16.30
2022-10-13T12:26:22.765Z,16.20
2022-10-13T12:29:00.809Z,16.30
2022-10-13T12:31:49.073Z,16.30
2022-10-13T12:34:35.116Z,16.30
2022-10-13T12:37:05.552Z,16.30
2022-10-13T12:39:35.132Z,16.40
2022-10-13T12:42:03.248Z,16.40
2022-10-13T12:44:32.190Z,16.50
2022-10-13T12:47:03.889Z,16.30
2022-10-13T12:49:30.637Z,16.40
2022-10-13T12:52:00.262Z,16.40
2022-10-13T12:54:32.611Z,16.40
2022-10-13T12:57:04.018Z,16.20
2022-10-13T12:59:31.858Z,16.20
2022-10-13T13:02:04.269Z,16.10
2022-10-13T13:04:41.168Z,16.00
2022-10-13T13:07:23.046Z,15.90
2022-10-13T13:10:03.288Z,15.90
2022-10-13T13:12:31.324Z,15.90
2022-10-13T13:14:58.417Z,15.80
2022-10-13T13:20:41.976Z,15.80
2022-10-13T13:23:08.781Z,15.70
2022-10-13T13:25:35.548Z,15.60
2022-10-13T13:28:04.688Z,15.70
2022-10-13T13:30:31.480Z,15.50
2022-10-13T13:32:58.300Z,15.50
2022-10-13T13:35:25.125Z,15.50
2022-10-13T13:37:53.108Z,15.40
2022-10-13T13:40:28.989Z,15.50
2022-10-13T13:42:55.935Z,15.50
2022-10-13T13:45:24.989Z,15.30
2022-10-13T13:47:51.753Z,15.40
2022-10-13T13:50:24.726Z,15.20
2022-10-13T13:52:51.665Z,15.20
2022-10-13T13:55:18.631Z,15.20
2022-10-13T13:57:45.808Z,15.30
2022-10-13T14:00:14.242Z,15.30
2022-10-13T14:02:41.622Z,15.20
2022-10-13T14:05:08.780Z,15.30
2022-10-13T14:07:35.581Z,15.20
2022-10-13T14:10:02.648Z,15.20
2022-10-13T14:12:30.848Z,15.20
2022-10-13T14:14:58.516Z,15.20
2022-10-13T14:17:26.407Z,15.20
2022-10-13T14:19:53.229Z,15.20
2022-10-13T14:22:20.447Z,15.10
2022-10-13T14:24:47.390Z,15.10
2022-10-13T14:27:14.392Z,15.00
2022-10-13T14:29:41.220Z,14.90
2022-10-13T14:32:08.001Z,15.00
2022-10-13T14:34:34.830Z,15.00
2022-10-13T14:37:01.651Z,15.00
2022-10-13T14:39:28.632Z,15.00
2022-10-13T14:41:55.430Z,14.90
2022-10-13T14:44:22.161Z,14.90
2022-10-13T14:46:48.984Z,14.90
2022-10-13T14:49:15.800Z,14.90
2022-10-13T14:51:43.016Z,14.90
2022-10-13T14:54:10.116Z,14.80
2022-10-13T14:56:37.400Z,14.90
2022-10-13T14:59:07.067Z,14.90
2022-10-13T15:01:34.449Z,14.90
2022-10-13T15:04:02.154Z,14.90
2022-10-13T15:06:29.566Z,15.00
2022-10-13T15:08:57.275Z,14.90
2022-10-13T15:11:25.341Z,14.90
2022-10-13T15:13:52.342Z,14.90
2022-10-13T15:16:28.244Z,14.80
2022-10-13T15:18:56.901Z,14.90
2022-10-13T15:21:24.228Z,14.80
2022-10-13T15:23:51.396Z,14.90
2022-10-13T15:26:19.500Z,14.80
2022-10-13T15:28:49.056Z,14.80
2022-10-13T15:31:18.018Z,14.70
2022-10-13T15:33:51.711Z,14.80
2022-10-13T15:36:19.665Z,14.70
2022-10-13T15:38:46.632Z,14.80
2022-10-13T15:41:13.415Z,14.70
2022-10-13T15:43:40.261Z,14.70
2022-10-13T15:46:21.268Z,14.60
2022-10-13T15:48:49.073Z,14.60
2022-10-13T15:51:19.640Z,14.50
2022-10-13T15:53:47.839Z,14.50
2022-10-13T15:56:14.972Z,14.50
2022-10-13T15:58:41.756Z,14.40
2022-10-13T16:01:12.961Z,14.40
2022-10-13T16:03:40.265Z,14.40
2022-10-13T16:06:09.143Z,14.30
2022-10-13T16:08:37.293Z,14.30
2022-10-13T16:11:09.052Z,14.30
2022-10-13T16:13:35.797Z,14.30
2022-10-13T16:16:02.672Z,14.30
2022-10-13T16:18:34.692Z,14.30
2022-10-13T16:21:07.500Z,14.30
2022-10-13T16:23:34.462Z,14.20
2022-10-13T16:26:02.612Z,14.20
2022-10-13T16:28:29.382Z,14.10
2022-10-13T16:30:56.192Z,14.20
2022-10-13T16:33:23.086Z,14.20
2022-10-13T16:35:49.854Z,14.20
2022-10-13T16:38:16.624Z,14.10
2022-10-13T16:40:43.328Z,14.10
2022-10-13T16:43:10.075Z,14.10
2022-10-13T16:45:58.549Z,14.10
2022-10-13T16:48:23.919Z,14.10
2022-10-13T16:50:51.746Z,14.00
2022-10-13T16:53:18.769Z,14.00
2022-10-13T16:55:45.578Z,14.00
2022-10-13T16:58:12.604Z,14.00
2022-10-13T17:00:40.197Z,14.00
2022-10-13T17:03:07.711Z,14.00
2022-10-13T17:05:34.471Z,14.00
2022-10-13T17:08:01.404Z,13.90
2022-10-13T17:10:28.168Z,13.90
2022-10-13T17:12:54.901Z,14.00
2022-10-13T17:15:21.676Z,13.90
2022-10-13T17:17:48.441Z,13.90
2022-10-13T17:20:15.272Z,14.00
2022-10-13T17:22:42.172Z,13.90
2022-10-13T17:25:09.385Z,13.90
2022-10-13T17:27:36.825Z,13.90
2022-10-13T17:30:05.053Z,13.90
2022-10-13T17:32:31.864Z,14.00
2022-10-13T17:34:59.617Z,14.00
2022-10-13T17:37:26.521Z,14.00
2022-10-13T17:39:53.435Z,14.00
2022-10-13T17:42:20.198Z,14.00
2022-10-13T17:44:49.369Z,14.00
2022-10-13T17:47:16.126Z,14.00
2022-10-13T17:49:42.905Z,13.90
2022-10-13T17:52:09.746Z,14.00
2022-10-13T17:54:37.012Z,14.00
2022-10-13T17:57:03.840Z,14.00
2022-10-13T17:59:30.768Z,14.00
2022-10-13T18:01:57.675Z,14.10
2022-10-13T18:04:24.475Z,14.10
2022-10-13T18:06:51.312Z,14.10
2022-10-13T18:09:20.193Z,14.10
2022-10-13T18:11:51.072Z,14.10
2022-10-13T18:14:20.331Z,14.10
2022-10-13T18:16:47.340Z,14.10
2022-10-13T18:19:14.319Z,14.00
2022-10-13T18:21:41.158Z,14.00
2022-10-13T18:24:10.205Z,14.00
2022-10-13T18:26:37.113Z,13.90
2022-10-13T18:29:06.027Z,13.90
2022-10-13T18:31:34.977Z,13.90
2022-10-13T18:34:07.655Z,13.90
2022-10-13T18:36:40.139Z,13.90
2022-10-13T18:39:10.459Z,13.90
2022-10-13T18:41:37.930Z,13.90
2022-10-13T18:44:06.033Z,13.90
2022-10-13T18:46:33.992Z,13.90
2022-10-13T18:49:00.787Z,14.00
2022-10-13T18:51:33.417Z,14.10
2022-10-13T18:54:02.765Z,14.00
2022-10-13T18:56:30.816Z,14.00
2022-10-13T18:59:00.043Z,13.90
2022-10-13T19:01:30.839Z,13.90
2022-10-13T19:03:58.140Z,13.90
2022-10-13T19:06:27.126Z,13.80
2022-10-13T19:09:05.661Z,13.80
2022-10-13T19:11:33.349Z,13.80
2022-10-13T19:14:01.285Z,13.70
2022-10-13T19:16:29.907Z,13.70
2022-10-13T19:18:57.262Z,13.70
2022-10-13T19:21:24.720Z,13.60
2022-10-13T19:23:51.560Z,13.50
2022-10-13T19:26:20.996Z,13.50
2022-10-13T19:28:48.323Z,13.50
2022-10-13T19:31:21.475Z,13.50
2022-10-13T19:33:49.313Z,13.50
2022-10-13T19:36:30.288Z,13.40
2022-10-13T19:38:57.764Z,13.40
2022-10-13T19:41:25.001Z,13.50
2022-10-13T19:43:52.626Z,13.40
2022-10-13T19:46:19.409Z,13.40
2022-10-13T19:48:46.228Z,13.30
2022-10-13T19:51:13.782Z,13.30
2022-10-13T19:53:41.128Z,13.30
2022-10-13T19:56:08.740Z,13.30
2022-10-13T19:58:36.378Z,13.20
2022-10-13T20:01:08.312Z,13.30
2022-10-13T20:03:35.291Z,13.20
2022-10-13T20:06:06.248Z,13.30
2022-10-13T20:08:33.640Z,13.20
2022-10-13T20:11:09.168Z,13.20
2022-10-13T20:13:36.815Z,13.10
2022-10-13T20:16:09.205Z,13.10
2022-10-13T20:18:37.112Z,13.10
2022-10-13T20:21:09.342Z,13.00
2022-10-13T20:23:36.213Z,13.00
2022-10-13T20:26:09.226Z,13.00
2022-10-13T20:28:41.893Z,13.00
2022-10-13T20:31:10.555Z,13.00
2022-10-13T20:33:37.409Z,13.00
2022-10-13T20:36:07.026Z,13.00
2022-10-13T20:38:38.054Z,13.10
2022-10-13T20:41:19.950Z,13.10
2022-10-13T20:43:47.973Z,13.00
2022-10-13T20:46:16.401Z,13.00
2022-10-13T20:51:30.865Z,13.00
2022-10-13T20:53:57.872Z,13.00
2022-10-13T20:56:26.299Z,12.90
2022-10-13T20:58:53.473Z,13.00
2022-10-13T21:01:22.109Z,13.00
2022-10-13T21:03:53.787Z,13.00
2022-10-13T21:06:21.519Z,12.90
2022-10-13T21:08:48.437Z,12.90
2022-10-13T21:11:17.299Z,12.90
2022-10-13T21:13:45.027Z,12.90
2022-10-13T21:16:23.709Z,12.90
2022-10-13T21:18:51.681Z,12.90
2022-10-13T21:21:22.191Z,12.90
2022-10-13T21:23:53.227Z,12.90
2022-10-13T21:26:22.127Z,12.90
2022-10-13T21:28:50.064Z,12.90
2022-10-13T21:31:18.915Z,12.80
2022-10-13T21:33:45.783Z,12.80
2022-10-13T21:36:15.719Z,12.80
2022-10-13T21:38:43.767Z,12.80
2022-10-13T21:41:12.185Z,12.80
2022-10-13T21:43:39.263Z,12.80
2022-10-13T21:46:19.941Z,12.80
2022-10-13T21:48:47.662Z,12.70
2022-10-13T21:51:15.976Z,12.70
2022-10-13T21:53:43.138Z,12.70
2022-10-13T21:56:11.979Z,12.70
2022-10-13T21:58:39.276Z,12.70
2022-10-13T22:01:06.869Z,12.70
2022-10-13T22:03:34.834Z,12.70
2022-10-13T22:06:07.014Z,12.70
2022-10-13T22:08:39.088Z,12.70
2022-10-13T22:11:07.269Z,12.70
2022-10-13T22:13:35.382Z,12.70
2022-10-13T22:16:10.574Z,12.70
2022-10-13T22:18:37.414Z,12.70
2022-10-13T22:21:07.068Z,12.70
2022-10-13T22:23:34.093Z,12.70
2022-10-13T22:26:00.845Z,12.70
2022-10-13T22:28:27.649Z,12.70
2022-10-13T22:30:54.524Z,12.70
2022-10-13T22:33:21.308Z,12.70
2022-10-13T22:35:48.065Z,12.70
2022-10-13T22:38:15.438Z,12.70
2022-10-13T22:40:42.258Z,12.70
2022-10-13T22:43:09.197Z,12.70
2022-10-13T22:45:35.992Z,12.70
2022-10-13T22:48:02.886Z,12.80
2022-10-13T22:50:29.880Z,12.80
2022-10-13T22:52:56.654Z,12.80
2022-10-13T22:55:23.401Z,12.80
2022-10-13T22:57:50.157Z,12.80
2022-10-13T23:00:17.038Z,12.80
2022-10-13T23:02:43.776Z,12.80
2022-10-13T23:05:10.520Z,12.80
2022-10-13T23:07:37.290Z,12.80
2022-10-13T23:10:04.408Z,12.80
2022-10-13T23:12:31.117Z,12.70
2022-10-13T23:14:57.908Z,12.80
2022-10-13T23:17:24.929Z,12.70
2022-10-13T23:19:51.761Z,12.70
2022-10-13T23:22:18.580Z,12.70
2022-10-13T23:24:45.295Z,12.70
2022-10-13T23:27:12.049Z,12.70
2022-10-13T23:29:38.792Z,12.70
2022-10-13T23:32:09.781Z,12.70
2022-10-13T23:34:36.847Z,12.70
2022-10-13T23:37:03.636Z,12.70
2022-10-13T23:39:30.357Z,12.70
2022-10-13T23:41:57.664Z,12.70
2022-10-13T23:44:24.518Z,12.70
2022-10-13T23:46:51.234Z,12.60
2022-10-13T23:49:17.985Z,12.60
2022-10-13T23:51:44.860Z,12.60
2022-10-13T23:54:11.738Z,12.60
2022-10-13T23:56:39.228Z,12.50
2022-10-13T23:59:06.049Z,12.50
